Capitol Logistics 247


KLAX
Los Angeles International Airport
Los Angeles, California, US
MMMX
Benito Juárez International Airport
Mexico City, , MX

Activity Log

Date Flight Route Aircraft Duration
12/14/2019 CPX247 PNDAH2 TCATE PPE UT10 ZCL UJ5 TIKEB TIKEB1C B763 3h 47m
08/05/2019 CPX247 PNDAH2 TCATE PPE UT10 ZCL UJ5 TIKEB TIKEB1C B763 3h 29m

Route Details

Aircraft Information
Primary: Boeing 767-300BDSF
Backup: Not Available
Route Data
Distance: 1351nm
Sched. Duration: 3h 10m
Avg. Duration: 3h 38m (+29m)
Times Flown: 2
Recm'd Route: PNDAH2 TCATE PPE UT10 ZCL UJ5 TIKEB TIKEB1C
Planned Altitude: 35,000ft
Origin Wx: KLAX 291053Z 00000KT 5SM BR FEW003 OVC006 16/14 A2993 RMK AO2 SLP135 T01610139
Dest. Wx: MMMX 291042Z 24003KT 7SM FEW020 SCT070 14/10 A3033 NOSIG RMK 8/570 HZY
Notes:

Financial History
Total Freight: 137,174lbs
Average Load: 68,587lbs/flt
Fuel Used: 70,751lbs
Avg. Fuel Used: 35,376lbs/flt
Fuel Expense: $83,248
Avg. Fuel Expense: $41,624
Avg. Fuel Cost: $1.18/lbs
Total Gross Income: $196,954
Pilot Pay: $378
Total Expenses: $21,375
Total Revenue: $90,628
Average Revenue: $98,476.83